Wabbaseka, Arkansas
Current Conditions -  °F | °C
As of 12:53 AM on Sunday 21 Dec 2014 (Local Time) from KPBF Reporting Station
Haze Haze  
Wind Chill: 29°   Ceiling: Unl
Heat Index: 34°   Visibility: 6mi
Dew Point: 32°   Wind: 6mph
Humidity: 92%   Direction: 10°N
Pressure: 30.23"   Gusts: NA
Location:  34.36°N, 91.8°W
Report Text: KPBF 210653Z AUTO 01005KT 6SM BR CLR 01/00 A3023 RMK AO2 SLP236 T00110000
Loading
Personal Weather Stations






























Interactive Weather Map New forecast layout! Learn more

10-Day Weather Forecast

Advertisements
Track Severe Weather on mobile